San Diego, CA (92101)

1:29 PM PDT on July 26, 2016 (GMT -0700)
Columbia District | | Change Station

Elev 23 ft 32.72 °N, 117.17 °W | Updated 3 seconds ago

Scattered Clouds
Scattered Clouds
75.2 °F
Feels Like 74 °F
N
0.2
Wind Variable Wind from WSW
Gusts 2.5 mph

Today
High -- | Low -- °F
--% Chance of Precip.
Yesterday
High -- | Low -- °F
Precip. -- in
Pressure 29.90 in
Visibility 10.0 miles
Clouds Few 1000 ft
Scattered Clouds 20000 ft
Heat Index 74 °F
Dew Point 73 °F
Humidity 94%
Rainfall 0.00 in
Snow Depth Not available.
5:58 AM 7:51 PM
Waning Gibbous, 51% visible
METAR KSAN 261951Z 30010KT 10SM FEW010 SCT200 25/19 A2990 RMK AO2 SLP125 T02500194
Pressure 29.90 in
Visibility 10.0 miles
Clouds Few 1000 ft
Scattered Clouds 20000 ft
Heat Index 74 °F
Dew Point 73 °F
Humidity 94%
Rainfall 0.00 in
Snow Depth Not available.
5:58 AM 7:51 PM
Waning Gibbous, 51% visible
METAR KSAN 261951Z 30010KT 10SM FEW010 SCT200 25/19 A2990 RMK AO2 SLP125 T02500194

10-Day Weather Forecast

Almanac

Astronomy

Jul. 26, 2016 Rise Set
Actual Time
Civil Twilight
Nautical Twilight
Astronomical Twilight
Moon
Length of Visible Light
Length of Day
Tomorrow will be .
, % of the Moon is Illuminated

Today's Extremes

State Highs State Lows

Community

WunderPhotos

Upload Photos

1,927,678 photos uploaded!

WunderBlog® & News

Nearby

Air Quality

  Air Quality AQ Index Pollutant
Not available.

Snow Depth

Station Depth Elevation

Earthquake Activity

City Distance Mag. Time & Date
Minimum magnitude displayed is 2.5.

Coastal Water Temperatures

Place Temperature

Stations

Nearby Weather Stations

Station Location Temp. Windchill Dew Point Humidity Wind Precip. Elev Updated Type
                   

Watches & Warnings

There are currently no watches in effect.